Winthrop, MN (55396)

3:17 PM CST on February 11, 2016 (GMT -0600)
Severance Lake | | Change Station
CLOSE
Current Station
Personal Weather Station
Location: Glencoe, MN
Elevation: 997 ft
Nearby Weather Stations

Elev 997 ft 44.68 °N, 94.13 °W | Updated 8 minutes ago

Overcast
Overcast
15.8 °F
Feels Like 8 °F
N
5.0
Wind Variable Wind from SW
Gusts 11.0 mph

Today
High -- | Low -- °F
--% Chance of Precip.
Yesterday
High -- | Low -- °F
Precip. -- in
Pressure 30.22 in
Visibility 10.0 miles
Clouds Overcast 3000 ft
Windchill 8 °F
Dew Point 6 °F
Humidity 66%
Rainfall 0.00 in
Snow Depth Not available.
7:23 AM 5:40 PM
Waxing Crescent, 14% visible
METAR KULM 112114Z AUTO 21007KT 10SM OVC030 M10/M16 A3022 RMK AO2
Pressure 30.22 in
Visibility 10.0 miles
Clouds Overcast 3000 ft
Windchill 8 °F
Dew Point 6 °F
Humidity 66%
Rainfall 0.00 in
Snow Depth Not available.
7:23 AM 5:40 PM
Waxing Crescent, 14% visible
METAR KULM 112114Z AUTO 21007KT 10SM OVC030 M10/M16 A3022 RMK AO2

10-Day Weather Forecast

Almanac

Astronomy

Feb. 11, 2016 Rise Set
Actual Time
Civil Twilight
Nautical Twilight
Astronomical Twilight
Moon
Length of Visible Light
Length of Day
Tomorrow will be .
, % of the Moon is Illuminated

Today's Extremes

State Highs State Lows

Community

WunderPhotos

Upload Photos

1,892,159 photos uploaded!

WunderBlog® & News

Nearby

Air Quality

  Air Quality AQ Index Pollutant
Not available.

Snow Depth

Station Depth Elevation

Earthquake Activity

City Distance Mag. Time & Date
Minimum magnitude displayed is 2.5.

Coastal Water Temperatures

Place Temperature

Stations

Nearby Weather Stations

Station Location Temp. Windchill Dew Point Humidity Wind Precip. Elev Updated Type
                   

Watches & Warnings

There are currently no watches in effect.